createdAt,value
2023-01-18T00:01:15.968Z,92.20694490854572
2023-01-18T00:04:16.606Z,92.15990070937517
2023-01-18T00:07:16.448Z,91.66738907190395
2023-01-18T00:11:17.275Z,92.21533688350966
2023-01-18T00:14:17.232Z,92.84721704312588
2023-01-18T00:17:16.967Z,92.9426061181001
2023-01-18T00:21:16.159Z,93.46692417056556
2023-01-18T00:24:16.504Z,92.90298832570774
2023-01-18T00:27:16.491Z,92.53618482816566
2023-01-18T00:31:18.917Z,91.90616003747458
2023-01-18T00:34:16.658Z,91.15368691530497
2023-01-18T00:37:16.735Z,89.79982697211057
2023-01-18T00:41:16.416Z,88.22886769236163
2023-01-18T00:44:16.785Z,87.43169301098177
2023-01-18T00:47:17.224Z,86.48586698290397
2023-01-18T00:51:21.360Z,85.26202965498796
2023-01-18T00:54:16.676Z,85.23372109770808
2023-01-18T00:57:16.420Z,85.65345739812916
2023-01-18T01:01:16.218Z,85.5699462805321
2023-01-18T01:31:17.470Z,85.18223142263071
2023-01-18T01:34:16.652Z,86.00911582610746
2023-01-18T01:37:16.437Z,85.52151428079475
2023-01-18T01:41:20.060Z,85.58708238030214
2023-01-18T01:44:50.825Z,84.91484492251908
2023-01-18T01:47:26.647Z,85.16990854103085
2023-01-18T01:51:19.256Z,85.05801677497331
2023-01-18T01:54:21.430Z,85.08986294330822
2023-01-18T01:57:20.753Z,85.20097058243617
2023-01-18T02:01:16.418Z,84.7447020267629
2023-01-18T02:04:17.025Z,84.91770148547387
2023-01-18T02:07:16.589Z,84.65726027879253
2023-01-18T02:11:16.416Z,83.948440703787
2023-01-18T02:14:17.637Z,84.03191914498122
2023-01-18T02:17:29.346Z,83.48447008419801
2023-01-18T02:21:18.348Z,83.18602490401794
2023-01-18T02:24:42.515Z,82.3905466413887
2023-01-18T02:27:21.800Z,82.26532880778072
2023-01-18T02:31:18.450Z,81.9945007225311
2023-01-18T02:34:25.071Z,81.78397144520132
2023-01-18T02:37:24.511Z,81.56665764939383
2023-01-18T02:41:22.838Z,81.81928731803237
2023-01-18T02:51:16.410Z,81.39811386734637
2023-01-18T02:54:24.824Z,81.28153755425721
2023-01-18T02:57:17.687Z,81.13098279907953
2023-01-18T03:01:21.649Z,80.72542279290931
2023-01-18T03:04:20.863Z,80.21710155869093
2023-01-18T03:07:20.588Z,79.87952382574186
2023-01-18T03:11:25.397Z,79.95962992586551
2023-01-18T03:14:27.222Z,79.32780230411458
2023-01-18T03:17:21.120Z,78.8738991823641
2023-01-18T03:21:16.249Z,78.7819535209097
2023-01-18T03:24:18.821Z,78.6239523473223
2023-01-18T03:41:18.353Z,76.71837275767507
2023-01-18T03:44:20.806Z,76.2927770294804
2023-01-18T03:47:16.761Z,76.5953279824408
2023-01-18T03:51:23.876Z,76.71586259830885
2023-01-18T03:54:21.357Z,76.5496037604633
2023-01-18T03:57:26.970Z,76.33382271409296
2023-01-18T04:01:16.662Z,75.27866537972076
2023-01-18T04:04:16.878Z,75.64774985496136
2023-01-18T04:07:17.288Z,75.71375124689997
2023-01-18T04:11:16.469Z,75.3012305178617
2023-01-18T04:14:16.874Z,75.5296321590424
2023-01-18T04:17:17.754Z,75.32526006487211
2023-01-18T04:21:16.061Z,75.49064602588068
2023-01-18T04:24:17.368Z,75.88742993971637
2023-01-18T04:27:16.478Z,75.06986666597837
2023-01-18T04:31:16.758Z,75.44570573420955
2023-01-18T04:34:16.969Z,75.61548529023554
2023-01-18T04:37:16.949Z,75.23443208182326
2023-01-18T04:41:16.148Z,75.31485816029974
2023-01-18T04:44:16.900Z,75.06996537200554
2023-01-18T04:47:16.619Z,74.92196734722418
2023-01-18T04:51:16.030Z,74.96504041359685
2023-01-18T04:54:17.258Z,74.88480968561618
2023-01-18T04:57:16.470Z,74.27733061468795
2023-01-18T05:01:17.515Z,74.53399207664685
2023-01-18T05:04:17.100Z,74.02266271686054
2023-01-18T05:07:17.554Z,74.36066638696776
2023-01-18T05:11:18.658Z,74.74192507689612
2023-01-18T05:14:17.122Z,74.78825039938674
2023-01-18T05:17:17.076Z,74.36218553981577
2023-01-18T05:21:16.487Z,74.15008266226806
2023-01-18T05:24:17.037Z,73.74882559583274
2023-01-18T05:27:19.005Z,73.14950189046792
2023-01-18T05:31:17.692Z,73.08024090740602
2023-01-18T05:34:17.671Z,72.69331972150853
2023-01-18T05:37:18.516Z,72.84990733620998
2023-01-18T05:41:19.818Z,72.51068755018544
2023-01-18T05:44:18.291Z,72.86765743554675
2023-01-18T05:47:19.932Z,73.25803248418393
2023-01-18T05:51:16.665Z,72.4027622740873
2023-01-18T05:54:17.178Z,72.7332211443192
2023-01-18T05:57:17.006Z,72.60516773420694
2023-01-18T06:01:15.995Z,72.71555196723983
2023-01-18T06:04:16.469Z,72.76100422892753
2023-01-18T06:07:17.066Z,72.0972831900758
2023-01-18T06:11:16.778Z,72.44531773338413
2023-01-18T06:14:16.926Z,71.84450969034351
2023-01-18T06:17:17.546Z,72.7517256123388
2023-01-18T06:21:16.316Z,71.59634717323661
2023-01-18T06:24:16.336Z,72.86279975118069
2023-01-18T06:27:16.488Z,71.4882335095203
2023-01-18T06:31:16.410Z,71.4074721269151
2023-01-18T06:34:16.184Z,71.8269611375532
2023-01-18T06:37:16.372Z,72.81121103237645
2023-01-18T06:41:16.381Z,74.71073159346889
2023-01-18T06:44:16.600Z,74.54458417903587
2023-01-18T06:47:20.510Z,75.60196198693522
2023-01-18T06:51:16.308Z,75.61882291203322
2023-01-18T06:54:17.041Z,75.59627026443842
2023-01-18T06:57:16.779Z,75.12514594018059
2023-01-18T07:01:16.658Z,75.01499415950929
2023-01-18T07:04:16.848Z,74.59750316384202
2023-01-18T07:07:16.863Z,74.23915581035149
2023-01-18T07:11:17.309Z,73.98100965173603
2023-01-18T07:14:16.631Z,74.68250701533957
2023-01-18T07:17:16.569Z,75.33015495361049
2023-01-18T07:21:17.631Z,75.01225372588732
2023-01-18T07:24:17.157Z,74.66735820654407
2023-01-18T07:27:17.032Z,74.6777547280538
2023-01-18T07:31:18.105Z,73.21800519001441
2023-01-18T07:34:16.687Z,72.48341312570615
2023-01-18T07:37:16.807Z,72.29059170096299
2023-01-18T07:41:16.578Z,71.6853978861368
2023-01-18T07:44:16.484Z,72.359534300541
2023-01-18T07:47:16.359Z,72.55179982560499
2023-01-18T07:51:16.648Z,73.03541045999782
2023-01-18T07:54:19.273Z,72.274588124008
2023-01-18T07:57:16.843Z,72.6790313946839
2023-01-18T08:01:18.721Z,73.36451455190254
2023-01-18T08:04:16.988Z,72.27525217188864
2023-01-18T08:07:17.892Z,73.3699094238477
2023-01-18T08:11:16.331Z,71.86312491442898
2023-01-18T08:14:16.665Z,71.34671616933144
2023-01-18T08:17:16.727Z,73.28839483777789
2023-01-18T08:21:16.981Z,72.62454145236015
2023-01-18T08:24:17.272Z,72.31931561976263
2023-01-18T08:27:17.385Z,74.37693371969016
2023-01-18T08:31:18.659Z,74.89080503489618
2023-01-18T08:34:16.939Z,74.94690763827977
2023-01-18T08:37:17.462Z,73.77587510875847
2023-01-18T08:41:16.081Z,74.14287527109076
2023-01-18T08:44:16.244Z,75.42837947282732
2023-01-18T08:47:16.411Z,76.30717836609423
2023-01-18T08:51:18.266Z,76.38256712465403
2023-01-18T08:54:16.334Z,78.4409835452038
2023-01-18T08:57:17.355Z,79.2169004257917
2023-01-18T09:01:16.948Z,81.69347054707369
2023-01-18T09:04:17.144Z,81.54939475869631
2023-01-18T09:07:17.197Z,84.6502409218409
2023-01-18T09:11:17.031Z,84.45002544485682
2023-01-18T09:14:16.376Z,88.18914432939395
2023-01-18T09:17:18.298Z,90.15415797875202
2023-01-18T09:21:17.539Z,91.67342984775405
2023-01-18T09:24:16.430Z,91.66585398016426
2023-01-18T09:27:17.120Z,90.93857906017017
2023-01-18T09:31:16.590Z,91.68641484363941
2023-01-18T09:34:19.955Z,92.08249515525232
2023-01-18T09:37:16.586Z,92.25903948833222
2023-01-18T09:41:27.638Z,90.72624024372934
2023-01-18T09:44:24.013Z,90.51907066804243
2023-01-18T09:47:19.160Z,91.61080010879475
2023-01-18T09:51:24.880Z,93.25416256215262
2023-01-18T09:54:30.566Z,94.05745790937455
2023-01-18T09:57:30.764Z,94.69617849048348
2023-01-18T10:01:21.751Z,94.09895595524232
2023-01-18T10:04:23.158Z,94.27316463837639
2023-01-18T10:07:19.132Z,94.4012487957626
2023-01-18T10:11:22.437Z,93.81826143698224
2023-01-18T10:14:23.373Z,93.21643651856992
2023-01-18T10:17:21.532Z,94.14372604073218
2023-01-18T10:21:23.927Z,93.12034369937064
2023-01-18T10:24:28.175Z,93.0426303312778
2023-01-18T10:27:33.332Z,93.18341602124073
2023-01-18T10:31:30.256Z,91.56924866710771
2023-01-18T10:34:20.368Z,94.08993650670894
2023-01-18T10:37:26.496Z,97.74359635323309
2023-01-18T10:41:20.275Z,99.19687416478959
2023-01-18T10:44:16.159Z,100
2023-01-18T10:47:17.812Z,100
2023-01-18T10:51:28.619Z,100
2023-01-18T10:54:22.729Z,100
2023-01-18T10:57:22.587Z,100
2023-01-18T11:01:20.321Z,100
2023-01-18T11:04:21.898Z,100
2023-01-18T11:07:24.035Z,100
2023-01-18T11:11:27.241Z,100
2023-01-18T11:14:24.556Z,100
2023-01-18T11:17:18.360Z,100
2023-01-18T11:21:16.503Z,100
2023-01-18T11:24:21.541Z,100
2023-01-18T11:27:23.210Z,100
2023-01-18T11:31:22.191Z,100
2023-01-18T11:34:24.219Z,100
2023-01-18T11:37:29.516Z,100
2023-01-18T11:41:19.661Z,94.20274152695649
2023-01-18T11:44:21.829Z,93.84234186099613
2023-01-18T11:47:22.801Z,93.34501846503159
2023-01-18T11:51:23.321Z,93.64247961097365
2023-01-18T11:54:24.092Z,93.58957108060616
2023-01-18T11:57:16.680Z,94.29636110985255
2023-01-18T12:01:50.826Z,93.54170370565592
2023-01-18T12:04:30.823Z,94.18232750325426
2023-01-18T12:07:30.260Z,94.80782797068703
2023-01-18T12:11:28.517Z,93.44323119453749
2023-01-18T12:14:33.253Z,91.83239336411478
2023-01-18T12:17:33.945Z,90.15405729659778
2023-01-18T12:21:26.563Z,90.56694759382167
2023-01-18T12:24:32.346Z,92.414636234648
2023-01-18T12:27:26.350Z,94.79551656531366
2023-01-18T12:31:28.421Z,96.31949326554074
2023-01-18T12:34:22.214Z,96.65411273781963
2023-01-18T12:37:30.456Z,96.32694760423819
2023-01-18T12:42:34.774Z,95.98139535563465
2023-01-18T12:44:32.362Z,95.11789743501477
2023-01-18T12:47:27.516Z,93.25116337107416
2023-01-18T12:51:19.546Z,92.69389221948487
2023-01-18T12:54:25.837Z,92.68520324718807
2023-01-18T12:57:19.583Z,92.04913587779247
2023-01-18T13:01:21.393Z,92.93948913730404
2023-01-18T13:04:23.264Z,91.70588991153673
2023-01-18T13:07:21.587Z,91.01873403045721
2023-01-18T13:11:21.480Z,90.37506669920893
2023-01-18T13:14:23.237Z,90.89229133376864
2023-01-18T13:17:24.665Z,90.86030881966309
2023-01-18T13:21:26.531Z,91.42853733436898
2023-01-18T13:24:28.755Z,90.91816826370145
2023-01-18T13:27:17.442Z,91.35455893663794
2023-01-18T13:31:30.111Z,92.77538310590975
2023-01-18T13:34:26.327Z,93.66903202737817
2023-01-18T13:37:40.370Z,93.68325477101801
2023-01-18T13:41:24.027Z,94.41700478156793
2023-01-18T13:44:27.744Z,93.64975158817658
2023-01-18T13:47:55.881Z,93.63570168683556
2023-01-18T13:51:53.248Z,93.61168928282086
2023-01-18T13:54:56.936Z,93.59769259413316
2023-01-18T13:57:17.479Z,94.85513021118054
2023-01-18T14:01:21.607Z,96.12982610438041
2023-01-18T14:04:27.347Z,94.96022451588492
2023-01-18T14:07:21.670Z,94.79861046390788
2023-01-18T14:11:25.229Z,96.07028606604507
2023-01-18T14:14:27.934Z,96.03011433171946
2023-01-18T14:17:16.747Z,96.78921059569788
2023-01-18T14:21:24.188Z,96.55815535932663
2023-01-18T14:24:39.599Z,96.18593536261102
2023-01-18T14:27:20.903Z,94.84181081961614
2023-01-18T14:31:20.151Z,94.63205132258682
2023-01-18T14:34:35.808Z,95.20790804760883
2023-01-18T14:37:24.766Z,95.73403657837834
2023-01-18T14:41:17.721Z,95.98692103596595
2023-01-18T14:44:20.439Z,95.8062794515985
2023-01-18T14:47:24.424Z,96.62710674321463
2023-01-18T14:51:21.179Z,98.17962257021368
2023-01-18T14:54:18.369Z,98.79969780166441
2023-01-18T14:57:17.698Z,97.96514161267909
2023-01-18T15:01:26.975Z,96.7326859592941
2023-01-18T15:04:19.719Z,97.45197471823025
2023-01-18T15:07:22.931Z,98.23510317477067
2023-01-18T15:11:16.597Z,98.59430635788355
2023-01-18T15:14:22.195Z,98.63213562789545
2023-01-18T15:17:24.572Z,98.6249473485452
2023-01-18T15:21:21.488Z,99.39421620001406
2023-01-18T15:24:18.972Z,99.35777853000307
2023-01-18T15:27:18.976Z,98.85478603155518
2023-01-18T15:31:16.777Z,98.95159244089842
2023-01-18T15:34:21.843Z,97.50903066349167
2023-01-18T15:37:23.002Z,96.9656277777592
2023-01-18T15:41:17.466Z,97.37881078499103
2023-01-18T15:44:41.366Z,98.05779678164255
2023-01-18T15:47:33.163Z,97.91662693103333
2023-01-18T15:51:16.425Z,97.99464175456455
2023-01-18T15:54:18.894Z,98.32325027221171
2023-01-18T15:57:19.570Z,98.96837717508744
2023-01-18T16:01:19.643Z,98.70192028678514
2023-01-18T16:04:20.825Z,98.02881384636709
2023-01-18T16:07:37.834Z,98.09309223274242
2023-01-18T16:11:28.379Z,98.98408315573828
2023-01-18T16:14:22.628Z,99.40860244333837
2023-01-18T16:17:20.579Z,100
2023-01-18T16:21:28.880Z,100
2023-01-18T16:24:26.098Z,100
2023-01-18T16:27:21.608Z,100
2023-01-18T16:31:21.046Z,100
2023-01-18T16:34:21.772Z,100
2023-01-18T16:37:18.767Z,99.96834673836273
2023-01-18T16:41:17.461Z,98.1743405800282
2023-01-18T16:44:28.349Z,98.06821870427814
2023-01-18T16:47:48.702Z,97.6496883439554
2023-01-18T16:51:24.596Z,97.66440582849432
2023-01-18T16:54:19.113Z,96.57991383881858
2023-01-18T16:57:24.130Z,96.55496648104939
2023-01-18T17:01:21.126Z,98.43582137248428
2023-01-18T17:04:24.401Z,97.8702945694243
2023-01-18T17:07:29.826Z,98.49312885314241
2023-01-18T17:11:17.963Z,99.65972184476566
2023-01-18T17:14:17.058Z,100
2023-01-18T17:17:16.778Z,100
2023-01-18T17:21:18.672Z,99.81786067689406
2023-01-18T17:24:19.996Z,99.2718975772586
2023-01-18T17:27:17.417Z,98.22562686005594
2023-01-18T17:31:22.157Z,97.60910602766965
2023-01-18T17:34:33.096Z,98.68100867909794
2023-01-18T17:37:26.381Z,97.8666307392615
2023-01-18T17:41:27.673Z,96.93469556666676
2023-01-18T17:44:33.011Z,96.73720181639217
2023-01-18T17:47:31.205Z,96.73184225055415
2023-01-18T17:51:26.708Z,95.52623061938925
2023-01-18T17:54:21.165Z,95.50567079760542
2023-01-18T17:57:22.696Z,95.80361265421125
2023-01-18T18:01:18.121Z,95.91163625259875
2023-01-18T18:04:17.611Z,95.16616149329039
2023-01-18T18:07:18.065Z,94.86607876146758
2023-01-18T18:11:22.565Z,95.83907483747724
2023-01-18T18:14:19.043Z,96.23249520883685
2023-01-18T18:17:23.615Z,96.4359547384743
2023-01-18T18:21:18.781Z,96.03773490239212
2023-01-18T18:24:21.025Z,95.54855409236302
2023-01-18T18:27:26.653Z,95.67264276315754
2023-01-18T18:31:25.875Z,96.70887569033988
2023-01-18T18:34:18.401Z,96.81203583771233
2023-01-18T18:37:22.773Z,96.51355527252844
2023-01-18T18:41:25.744Z,96.77661897120616
2023-01-18T18:44:17.336Z,96.31485049628793
2023-01-18T18:47:17.452Z,97.01024594599905
2023-01-18T18:51:17.973Z,96.5248627274076
2023-01-18T18:54:20.312Z,95.7574163443064
2023-01-18T18:57:18.258Z,95.7599073925366
2023-01-18T19:01:27.007Z,95.54388549503746
2023-01-18T19:04:25.508Z,95.59450876905564
2023-01-18T19:07:24.723Z,94.87660195677198
2023-01-18T19:11:17.242Z,95.14924766054355
2023-01-18T19:14:17.190Z,94.52472379033428
2023-01-18T19:17:28.913Z,94.53050046007911
2023-01-18T19:21:16.631Z,94.68430520571663
2023-01-18T19:24:17.039Z,94.56640442224041
2023-01-18T19:27:17.039Z,94.3946707431302
2023-01-18T19:31:16.180Z,93.93708575129035
2023-01-18T19:34:16.920Z,94.07043105911906
2023-01-18T19:37:16.607Z,93.69392713880467
2023-01-18T19:41:18.858Z,94.14002565648316
2023-01-18T19:44:17.370Z,93.42382947886422
2023-01-18T19:47:17.401Z,93.60741887566303
2023-01-18T19:51:22.305Z,93.74549770477249
2023-01-18T19:54:16.879Z,93.83605939899701
2023-01-18T19:57:16.978Z,94.09170814473667
2023-01-18T20:01:26.785Z,94.263945769743
2023-01-18T20:04:17.090Z,93.64502697852477
2023-01-18T20:07:17.031Z,93.5488832053155
2023-01-18T20:11:17.092Z,94.56655664057884
2023-01-18T20:14:18.632Z,94.44347112679203
2023-01-18T20:17:17.294Z,94.333369498335
2023-01-18T20:21:16.992Z,94.10641228316979
2023-01-18T20:24:17.348Z,93.68667875402818
2023-01-18T20:27:17.437Z,93.2760180951762
2023-01-18T20:31:25.079Z,92.06107858473804
2023-01-18T20:34:17.403Z,91.9689921659659
2023-01-18T20:37:19.205Z,92.38232977173793
